Time;durP1;ratioP1;P1;durP2;ratioP2;P2;SDS_P1;SDS_P2;PMS_P1;PMS_P2;Temp;Humidity;BMP_temperature;BMP_pressure;BME280_temperature;BME280_humidity;BME280_pressure;Samples;Min_cycle;Max_cycle;Signal;HPM_P1;HPM_P2
2021/01/05 00:05:43;;;;;;;13.05;6.65;;;;;;;8.79;91.79;98023.81;5348227;23;20060;-79
2021/01/05 00:08:09;;;;;;;12.52;6.60;;;;;;;8.79;91.21;98026.47;4898932;29;20044;-78
2021/01/05 00:10:34;;;;;;;17.48;6.35;;;;;;;8.79;91.25;98023.81;4894601;29;20083;-80
2021/01/05 00:16:50;;;;;;;11.10;6.13;;;;;;;8.76;91.23;98041.16;5249615;23;20494;-78
2021/01/05 00:19:15;;;;;;;10.50;6.20;;;;;;;8.76;91.50;98043.03;4885969;29;20050;-77
2021/01/05 00:21:42;;;;;;;8.88;5.43;;;;;;;8.73;91.02;98049.72;4882381;29;20028;-78
2021/01/05 00:24:07;;;;;;;10.48;6.32;;;;;;;8.72;91.60;98048.16;4882443;29;20024;-77
2021/01/05 00:26:37;;;;;;;9.35;4.90;;;;;;;8.71;91.75;98051.88;4881794;29;20486;-79
2021/01/05 00:29:03;;;;;;;13.32;5.93;;;;;;;8.72;91.96;98061.47;4882438;29;20028;-78
2021/01/05 00:31:29;;;;;;;10.68;4.40;;;;;;;8.72;91.96;98058.81;4882357;29;20044;-78
2021/01/05 00:33:54;;;;;;;8.18;4.55;;;;;;;8.73;92.50;98060.41;4881897;29;20489;-78
2021/01/05 00:36:20;;;;;;;7.97;4.75;;;;;;;8.74;92.23;98053.19;4882295;29;20187;-78
2021/01/05 00:39:35;;;;;;;12.15;5.10;;;;;;;8.74;92.12;98059.31;4882554;29;20024;-80
2021/01/05 00:42:02;;;;;;;7.13;4.22;;;;;;;8.76;92.52;98070.50;4878932;29;20079;-79
2021/01/05 00:45:24;;;;;;;9.98;5.10;;;;;;;8.77;92.24;98066.72;4882401;29;20036;-79
2021/01/05 00:48:06;;;;;;;9.70;5.22;;;;;;;8.77;92.23;98068.63;4790313;29;20099;-80
2021/01/05 00:50:56;;;;;;;9.15;5.35;;;;;;;8.76;92.23;98070.50;4790734;29;20044;-80
2021/01/05 00:53:22;;;;;;;11.32;4.88;;;;;;;8.75;92.14;98068.91;4791048;29;20074;-79
2021/01/05 00:55:54;;;;;;;7.30;4.47;;;;;;;8.75;91.97;98073.44;4790937;29;20051;-79
2021/01/05 00:58:41;;;;;;;9.40;4.53;;;;;;;8.76;92.10;98075.03;4791124;29;20046;-80
2021/01/05 01:01:07;;;;;;;9.80;4.82;;;;;;;8.76;91.93;98083.00;4799684;29;20109;-79
2021/01/05 01:03:32;;;;;;;8.85;5.15;;;;;;;8.76;91.88;98086.50;4882782;29;20096;-79
2021/01/05 01:05:57;;;;;;;9.13;4.72;;;;;;;8.78;91.74;98092.31;4883340;29;20445;-78
2021/01/05 01:08:23;;;;;;;12.80;5.85;;;;;;;8.79;91.75;98093.91;4884674;29;20056;-79
2021/01/05 01:10:48;;;;;;;9.68;6.18;;;;;;;8.84;91.23;98100.22;4888237;29;20023;-80
2021/01/05 01:13:57;;;;;;;11.95;6.68;;;;;;;8.86;90.47;98104.22;4888775;29;20538;-80
2021/01/05 01:16:45;;;;;;;13.00;6.30;;;;;;;8.89;90.27;98100.19;4873008;29;20032;-80
2021/01/05 01:19:11;;;;;;;;;;;;;;;8.91;89.85;98098.00;4863565;29;20489;-78
2021/01/05 01:21:44;;;;;;;12.25;5.85;;;;;;;8.91;89.58;98098.00;4896216;29;19919;-78
2021/01/05 01:24:09;;;;;;;9.20;6.30;;;;;;;8.92;89.56;98096.94;4896651;29;20123;-78
2021/01/05 01:26:35;;;;;;;9.65;5.60;;;;;;;8.91;90.07;98096.16;4896899;29;20123;-79
2021/01/05 01:29:00;;;;;;;10.52;6.75;;;;;;;8.92;89.29;98089.75;4896902;29;20059;-78
2021/01/05 01:31:28;;;;;;;12.93;5.85;;;;;;;8.91;89.52;98082.00;4897411;29;20035;-79
2021/01/05 01:33:53;;;;;;;9.52;5.78;;;;;;;8.89;89.21;98084.19;4912781;29;20123;-77
2021/01/05 01:36:19;;;;;;;7.72;4.35;;;;;;;8.89;89.76;98089.53;4898104;29;20194;-79
2021/01/05 01:38:44;;;;;;;6.82;4.03;;;;;;;8.88;89.71;98090.59;4899350;29;20036;-80
2021/01/05 01:42:12;;;;;;;7.30;4.30;;;;;;;8.85;89.85;98094.63;4893716;29;20045;-79
2021/01/05 01:44:41;;;;;;;7.93;3.80;;;;;;;8.86;89.95;98095.41;4849684;29;20063;-80
2021/01/05 01:47:25;;;;;;;6.97;3.47;;;;;;;8.84;90.22;98087.72;4860585;29;20052;-78
2021/01/05 01:49:55;;;;;;;7.90;4.20;;;;;;;8.85;90.40;98091.16;4882797;29;20092;-78
2021/01/05 01:53:03;;;;;;;7.00;4.20;;;;;;;8.87;90.60;98100.44;4878853;29;20045;-77
2021/01/05 01:55:37;;;;;;;6.65;3.90;;;;;;;8.89;90.35;98092.19;4877511;29;20181;-77
2021/01/05 01:58:28;;;;;;;5.70;2.90;;;;;;;8.90;90.28;98112.41;4886671;29;20040;-78
2021/01/05 02:01:10;;;;;;;3.58;2.60;;;;;;;8.91;90.49;98108.66;4881509;29;20071;-79
2021/01/05 02:13:29;;;;;;;7.72;2.90;;;;;;;9.07;89.50;98117.25;4923651;29;20088;-79
2021/01/05 02:16:37;;;;;;;4.10;3.05;;;;;;;9.10;89.44;98117.47;4904150;29;20043;-78
2021/01/05 02:19:31;;;;;;;;;;;;;;;9.12;88.87;98112.63;4899161;29;20490;-80
2021/01/05 02:22:10;;;;;;;4.57;2.47;;;;;;;9.12;88.73;98112.63;4899535;29;20385;-78
2021/01/05 02:24:50;;;;;;;3.92;2.30;;;;;;;9.17;88.50;98110.97;4898233;29;20028;-78
2021/01/05 02:28:00;;;;;;;9.38;3.22;;;;;;;9.17;88.36;98113.63;4899250;29;20037;-81
2021/01/05 02:31:26;;;;;;;6.13;2.42;;;;;;;9.17;88.18;98110.97;4889842;29;20429;-80
2021/01/05 02:37:22;;;;;;;2.70;1.98;;;;;;;9.18;87.71;98132.03;4842299;29;20554;-79
2021/01/05 02:40:25;;;;;;;3.28;2.30;;;;;;;9.20;87.91;98134.41;4901752;29;20068;-78
2021/01/05 02:43:40;;;;;;;4.00;2.65;;;;;;;9.23;88.20;98126.63;4918881;29;20055;-79
2021/01/05 02:46:09;;;;;;;4.93;2.40;;;;;;;9.24;87.74;98124.75;4902329;29;20063;-79
2021/01/05 02:48:51;;;;;;;4.65;2.17;;;;;;;9.26;87.51;98123.41;4901942;29;20028;-78
2021/01/05 02:55:19;;;;;;;3.97;2.22;;;;;;;9.32;87.11;98112.63;4922302;29;20458;-81
2021/01/05 02:58:41;;;;;;;3.47;2.30;;;;;;;9.31;86.93;98095.81;4901554;29;20024;-81
2021/01/05 03:01:36;;;;;;;3.50;2.05;;;;;;;9.33;86.76;98100.88;4901152;29;20095;-80
2021/01/05 03:04:03;;;;;;;4.70;2.78;;;;;;;9.31;86.41;98109.16;4918549;29;20028;-80
2021/01/05 03:06:37;;;;;;;6.25;2.60;;;;;;;9.32;85.93;98117.97;4918333;29;20032;-78
2021/01/05 03:09:34;;;;;;;3.65;2.10;;;;;;;9.32;85.92;98133.97;4899235;29;20084;-78
2021/01/05 03:12:43;;;;;;;4.93;2.70;;;;;;;9.30;85.89;98144.91;4881002;29;20048;-81
2021/01/05 03:15:37;;;;;;;5.25;2.83;;;;;;;9.30;85.56;98150.25;4881696;29;20032;-78
2021/01/05 03:18:33;;;;;;;4.72;2.17;;;;;;;9.27;85.00;98158.84;4880298;29;20040;-78
2021/01/05 03:21:23;;;;;;;10.80;6.72;;;;;;;9.23;84.70;98165.88;4857587;29;20051;-78
2021/01/05 03:23:51;;;;;;;16.02;8.18;;;;;;;9.18;84.26;98165.91;4886409;29;20048;-77
2021/01/05 03:27:01;;;;;;;17.55;8.73;;;;;;;9.12;84.29;98159.88;4884946;29;20021;-85
2021/01/05 03:29:36;;;;;;;20.58;9.77;;;;;;;9.09;83.92;98174.59;4894872;29;20075;-79
2021/01/05 03:32:07;;;;;;;26.42;11.27;;;;;;;9.03;83.90;98174.91;4898184;29;20116;-79
2021/01/05 03:34:32;;;;;;;20.38;10.63;;;;;;;8.95;83.77;98185.16;4881665;29;20048;-78
2021/01/05 03:37:18;;;;;;;20.33;11.50;;;;;;;8.91;83.91;98194.00;4881793;29;20032;-79
2021/01/05 03:39:43;;;;;;;21.90;11.18;;;;;;;8.80;83.87;98196.78;4883525;29;20409;-79
2021/01/05 03:42:09;;;;;;;25.15;11.77;;;;;;;8.78;83.96;98200.81;4881238;29;20041;-79
2021/01/05 03:44:34;;;;;;;25.88;11.57;;;;;;;8.75;84.24;98202.19;4879797;29;20056;-80
2021/01/05 03:47:41;;;;;;;22.30;11.23;;;;;;;8.72;84.50;98202.75;4880646;29;20033;-80
2021/01/05 03:50:47;;;;;;;22.10;11.02;;;;;;;8.71;84.12;98209.16;4893808;29;20048;-82
2021/01/05 04:00:28;;;;;;;21.20;10.82;;;;;;;8.72;84.71;98234.75;4848149;29;20076;-78
2021/01/05 04:03:24;;;;;;;23.58;10.98;;;;;;;8.75;84.84;98242.19;4840897;29;20443;-81
2021/01/05 04:06:28;;;;;;;23.83;11.98;;;;;;;8.78;84.80;98248.81;4842067;29;20034;-80
2021/01/05 04:09:21;;;;;;;20.52;11.27;;;;;;;8.79;84.45;98255.75;4790805;29;20050;-80
2021/01/05 04:11:47;;;;;;;23.77;11.65;;;;;;;8.81;84.80;98264.22;4848037;29;20045;-80
2021/01/05 04:15:08;;;;;;;19.50;10.75;;;;;;;8.83;84.93;98271.97;4855618;29;20089;-80
2021/01/05 04:18:02;;;;;;;17.63;10.25;;;;;;;8.85;84.91;98281.28;4861071;29;20040;-80
2021/01/05 04:20:31;;;;;;;16.65;8.88;;;;;;;8.85;84.85;98286.59;4864068;29;20195;-80
2021/01/05 04:22:57;;;;;;;17.92;10.00;;;;;;;8.88;84.39;98280.69;4846207;29;20083;-78
2021/01/05 04:25:23;;;;;;;21.15;9.23;;;;;;;8.88;84.00;98286.03;4890685;29;20529;-79
2021/01/05 04:28:04;;;;;;;13.15;8.38;;;;;;;8.91;83.99;98290.00;4861958;29;20032;-81
2021/01/05 04:30:33;;;;;;;16.17;8.05;;;;;;;8.92;83.95;98295.06;4866091;29;20033;-79
2021/01/05 04:33:10;;;;;;;11.88;7.20;;;;;;;8.93;83.52;98296.63;4867276;29;20075;-81
2021/01/05 04:36:01;;;;;;;11.15;7.03;;;;;;;8.95;83.34;98301.69;4868200;29;20047;-81
2021/01/05 04:38:27;;;;;;;10.27;6.53;;;;;;;8.95;83.53;98305.16;4862673;29;20033;-79
2021/01/05 04:41:27;;;;;;;7.93;5.28;;;;;;;8.97;83.60;98305.66;4862658;29;20049;-80
2021/01/05 04:44:02;;;;;;;12.68;7.03;;;;;;;8.96;82.93;98314.75;4877741;29;20116;-79
2021/01/05 04:47:23;;;;;;;11.30;6.78;;;;;;;8.97;82.43;98315.53;4878060;29;20440;-80
2021/01/05 04:50:29;;;;;;;8.30;4.95;;;;;;;8.95;82.31;98321.16;4784528;29;20807;-79
2021/01/05 04:53:12;;;;;;;10.65;3.58;;;;;;;8.92;81.60;98331.59;4877941;29;20502;-79
2021/01/05 05:02:28;;;;;;;2.95;2.40;;;;;;;8.87;80.34;98345.75;4883445;29;20116;-78
2021/01/05 05:05:21;;;;;;;3.63;2.13;;;;;;;8.87;80.36;98347.63;4863027;29;20040;-78
2021/01/05 05:08:54;;;;;;;3.33;2.15;;;;;;;8.86;80.13;98354.03;4862647;29;20040;-79
2021/01/05 05:11:59;;;;;;;2.97;1.88;;;;;;;8.85;79.86;98350.59;4789584;29;20043;-79
2021/01/05 05:21:30;;;;;;;4.05;1.10;;;;;;;8.82;78.84;98380.47;4804482;30;20145;-78
2021/01/05 05:24:13;;;;;;;1.85;1.65;;;;;;;8.81;78.87;98377.03;4779056;30;20036;-78
2021/01/05 05:30:29;;;;;;;2.78;1.60;;;;;;;8.77;79.67;98389.31;4761529;30;20132;-80
2021/01/05 05:33:46;;;;;;;2.15;1.45;;;;;;;8.79;79.97;98391.72;4748821;30;20097;-81
2021/01/05 05:36:56;;;;;;;1.60;1.15;;;;;;;8.76;79.99;98400.25;4746733;30;20422;-80
2021/01/05 05:39:47;;;;;;;2.28;1.58;;;;;;;8.77;79.88;98405.31;4742450;30;20043;-80
2021/01/05 05:43:09;;;;;;;4.60;3.13;;;;;;;8.75;79.84;98410.13;4739407;30;20572;-80
2021/01/05 05:53:17;;;;;;;3.30;2.30;;;;;;;8.75;80.13;98428.00;4761036;30;20093;-80
2021/01/05 05:56:09;;;;;;;3.67;3.33;;;;;;;8.76;80.34;98432.25;4741011;30;20071;-81
2021/01/05 06:02:46;;;;;;;4.28;2.83;;;;;;;8.78;80.23;98428.22;4751065;30;20043;-80
2021/01/05 06:42:32;;;;;;;7.93;5.72;;;;;;;8.99;77.04;98492.06;4726069;30;20056;-82
2021/01/05 06:46:14;;;;;;;26.98;10.15;;;;;;;9.03;76.50;98501.09;4756452;30;20536;-81
2021/01/05 06:49:56;;;;;;;14.55;8.18;;;;;;;9.07;76.77;98498.66;4824444;29;20037;-82
2021/01/05 06:57:22;;;;;;;22.48;11.43;;;;;;;9.17;77.09;98511.13;4733153;30;20048;-82
2021/01/05 07:03:46;;;;;;;24.08;12.45;;;;;;;9.34;76.66;98522.19;4680455;30;20056;-82
2021/01/05 07:06:31;;;;;;;21.90;9.75;;;;;;;9.42;76.79;98529.59;4693368;30;20573;-81
2021/01/05 07:08:56;;;;;;;13.65;8.50;;;;;;;9.49;76.72;98537.28;4779596;29;20132;-81
2021/01/05 07:11:22;;;;;;;16.48;7.53;;;;;;;9.58;75.48;98540.13;4858154;29;20458;-81
2021/01/05 07:13:47;;;;;;;15.10;6.63;;;;;;;9.66;75.43;98542.19;4827194;29;20515;-82
2021/01/05 07:16:13;;;;;;;12.10;7.07;;;;;;;9.74;75.09;98538.91;4842675;29;20068;-81
2021/01/05 07:18:38;;;;;;;16.30;8.80;;;;;;;9.81;75.16;98537.78;4841994;29;20124;-80
2021/01/05 07:21:04;;;;;;;11.85;7.00;;;;;;;9.89;74.62;98547.84;4841845;29;20462;-80
2021/01/05 07:23:30;;;;;;;8.75;5.55;;;;;;;9.98;74.77;98546.13;4842395;29;20057;-81
2021/01/05 07:25:55;;;;;;;9.50;5.20;;;;;;;10.05;73.32;98551.16;4839072;29;20113;-81
2021/01/05 07:28:20;;;;;;;5.57;3.60;;;;;;;10.15;74.50;98560.91;4824147;29;20057;-80
2021/01/05 07:30:46;;;;;;;7.15;3.95;;;;;;;10.24;73.14;98561.88;4823993;29;20179;-81
2021/01/05 07:33:11;;;;;;;6.57;3.42;;;;;;;10.37;73.55;98563.88;4839167;29;20420;-80
2021/01/05 07:35:36;;;;;;;5.00;3.13;;;;;;;10.47;73.80;98562.94;4843672;29;20037;-81
2021/01/05 07:38:02;;;;;;;2.88;2.20;;;;;;;10.62;74.11;98570.00;4843401;29;20430;-81
2021/01/05 07:40:27;;;;;;;3.13;2.08;;;;;;;10.72;73.50;98575.19;4843561;29;20098;-81
2021/01/05 07:42:53;;;;;;;2.83;2.10;;;;;;;10.90;72.00;98583.53;4843244;29;20158;-80
2021/01/05 07:45:21;;;;;;;4.13;2.38;;;;;;;11.04;70.91;98578.25;4843526;29;20036;-81
2021/01/05 07:47:46;;;;;;;3.83;2.13;;;;;;;11.19;70.98;98579.88;4843464;29;20060;-81
2021/01/05 07:50:25;;;;;;;1.33;1.17;;;;;;;11.29;68.84;98584.28;4858433;29;20069;-81
2021/01/05 07:52:51;;;;;;;2.38;1.48;;;;;;;11.42;69.50;98580.09;4843201;29;20030;-80
2021/01/05 07:55:20;;;;;;;0.93;0.82;;;;;;;11.51;68.30;98594.38;4858686;29;20108;-81
2021/01/05 07:57:46;;;;;;;0.75;0.63;;;;;;;11.57;66.60;98601.25;4843356;29;20033;-82
2021/01/05 08:00:16;;;;;;;1.85;1.10;;;;;;;11.63;66.11;98597.41;4843013;29;20040;-81
2021/01/05 08:02:42;;;;;;;2.03;1.02;;;;;;;11.72;66.27;98594.03;4858560;29;20025;-81
2021/01/05 08:05:10;;;;;;;1.73;1.58;;;;;;;11.78;65.06;98603.56;4843079;29;20550;-81
2021/01/05 08:07:36;;;;;;;1.50;0.90;;;;;;;11.87;65.07;98609.06;4858479;29;20089;-81
2021/01/05 08:10:04;;;;;;;0.82;0.70;;;;;;;11.89;63.83;98609.53;4842485;29;20048;-81
2021/01/05 08:12:29;;;;;;;0.88;0.88;;;;;;;11.93;63.37;98619.38;4842924;29;20033;-81
2021/01/05 08:14:54;;;;;;;1.00;1.00;;;;;;;11.97;63.46;98617.75;4842780;29;20075;-82
2021/01/05 08:17:20;;;;;;;1.48;0.70;;;;;;;12.01;62.93;98621.41;4842919;29;20115;-81
2021/01/05 08:19:46;;;;;;;0.80;0.60;;;;;;;12.05;63.31;98610.91;4858335;29;20120;-82
2021/01/05 08:22:13;;;;;;;1.10;0.60;;;;;;;12.09;63.13;98619.16;4858081;29;20033;-81
2021/01/05 08:24:39;;;;;;;0.80;0.57;;;;;;;12.13;63.28;98623.63;4844021;29;20030;-82
2021/01/05 08:27:10;;;;;;;0.80;0.80;;;;;;;12.19;62.64;98616.25;4861068;29;20501;-81
2021/01/05 08:29:36;;;;;;;0.80;0.55;;;;;;;12.19;62.38;98616.25;4877993;29;20029;-81
2021/01/05 08:32:02;;;;;;;0.82;0.73;;;;;;;12.21;62.00;98619.47;4860202;29;20495;-81
2021/01/05 08:34:28;;;;;;;1.38;1.15;;;;;;;12.23;63.02;98619.16;4861183;29;20025;-83
2021/01/05 08:36:53;;;;;;;3.33;2.50;;;;;;;12.27;62.69;98628.22;4860998;29;20093;-81
2021/01/05 08:39:18;;;;;;;2.92;1.38;;;;;;;12.29;61.63;98620.63;4861100;29;20041;-82
2021/01/05 08:41:45;;;;;;;3.65;2.13;;;;;;;12.29;62.36;98612.59;4860963;29;20482;-81
2021/01/05 08:44:11;;;;;;;2.55;2.00;;;;;;;12.33;61.94;98614.38;4860804;29;20037;-82
2021/01/05 08:46:37;;;;;;;0.65;0.35;;;;;;;12.35;60.37;98618.66;4860992;29;20036;-83
2021/01/05 08:49:03;;;;;;;1.65;0.68;;;;;;;12.36;60.38;98622.94;4860848;29;20411;-81
2021/01/05 08:51:30;;;;;;;0.80;0.57;;;;;;;12.37;61.19;98624.53;4860879;29;20044;-83
2021/01/05 08:53:56;;;;;;;1.35;1.08;;;;;;;12.43;61.87;98620.66;4861178;29;20032;-81
2021/01/05 08:56:23;;;;;;;2.70;1.20;;;;;;;12.47;60.67;98619.78;4877563;29;20064;-83
2021/01/05 08:58:49;;;;;;;2.50;0.80;;;;;;;12.47;59.69;98627.00;4877783;29;20063;-82
2021/01/05 09:01:15;;;;;;;1.52;1.15;;;;;;;12.50;60.76;98621.06;4860494;29;20085;-82
2021/01/05 09:03:41;;;;;;;2.42;1.42;;;;;;;12.53;60.78;98636.53;4860727;29;20040;-81
2021/01/05 09:06:07;;;;;;;3.55;1.52;;;;;;;12.54;61.36;98629.31;4860545;29;20037;-82
2021/01/05 09:08:33;;;;;;;3.75;2.40;;;;;;;12.57;61.16;98631.38;4860717;29;20025;-80
2021/01/05 09:11:04;;;;;;;3.72;2.00;;;;;;;12.59;61.28;98626.50;4876752;29;20033;-80
2021/01/05 09:13:30;;;;;;;1.50;0.98;;;;;;;12.64;60.32;98637.13;4860589;29;20530;-82
2021/01/05 09:15:56;;;;;;;4.22;1.17;;;;;;;12.65;59.90;98628.78;4860401;29;20029;-82
2021/01/05 09:18:22;;;;;;;1.67;1.15;;;;;;;12.69;60.72;98636.22;4860573;29;20409;-82
2021/01/05 09:20:52;;;;;;;0.98;0.80;;;;;;;12.71;60.32;98632.16;4860562;29;20483;-82
2021/01/05 09:23:22;;;;;;;0.32;0.32;;;;;;;12.72;60.37;98622.19;4860253;29;20035;-82
2021/01/05 09:25:52;;;;;;;0.65;0.65;;;;;;;12.68;59.84;98613.97;4860419;29;20060;-82
2021/01/05 09:28:19;;;;;;;2.63;1.25;;;;;;;12.74;59.87;98626.19;4860287;29;20068;-82
2021/01/05 09:30:48;;;;;;;5.05;1.73;;;;;;;12.73;60.15;98626.47;4860411;29;20045;-82
2021/01/05 09:33:15;;;;;;;1.23;1.10;;;;;;;12.77;59.75;98630.94;4860197;29;20033;-82
2021/01/05 09:35:40;;;;;;;1.58;1.42;;;;;;;12.80;59.83;98627.69;4860372;29;20033;-82
2021/01/05 09:38:08;;;;;;;3.65;0.70;;;;;;;12.84;59.03;98627.06;4860216;29;20495;-82
2021/01/05 09:40:35;;;;;;;1.08;1.08;;;;;;;12.86;58.94;98622.19;4860350;29;20040;-82
2021/01/05 09:43:01;;;;;;;1.30;0.98;;;;;;;12.88;59.62;98622.69;4862131;29;20093;-82
2021/01/05 09:45:26;;;;;;;1.13;1.02;;;;;;;12.86;57.12;98620.28;4864028;29;20032;-82
2021/01/05 09:48:20;;;;;;;2.08;1.10;;;;;;;12.89;58.22;98625.06;4864050;29;20044;-82
2021/01/05 09:50:47;;;;;;;1.52;1.00;;;;;;;12.93;57.03;98617.22;4863901;29;20478;-82
2021/01/05 09:53:12;;;;;;;1.52;0.85;;;;;;;12.93;55.25;98615.31;4863741;29;20475;-82
2021/01/05 09:55:38;;;;;;;1.48;0.80;;;;;;;12.99;54.96;98618.69;4863993;29;20044;-81
2021/01/05 09:58:04;;;;;;;1.58;0.95;;;;;;;13.03;54.67;98621.56;4863589;29;20083;-81
2021/01/05 10:00:30;;;;;;;0.93;0.80;;;;;;;13.06;52.98;98620.94;4863875;29;20036;-81
2021/01/05 10:02:56;;;;;;;0.68;0.60;;;;;;;13.05;51.10;98620.16;4880321;29;20089;-81
2021/01/05 10:05:22;;;;;;;0.70;0.65;;;;;;;13.08;52.05;98626.81;4863843;29;20123;-82
2021/01/05 10:07:48;;;;;;;0.55;0.50;;;;;;;13.06;50.40;98629.81;4863563;29;20033;-82
2021/01/05 10:10:21;;;;;;;0.82;0.77;;;;;;;13.01;51.05;98642.53;4863102;29;20561;-82
2021/01/05 10:12:47;;;;;;;0.98;0.77;;;;;;;13.01;51.72;98642.53;4863570;29;20140;-82
2021/01/05 10:15:13;;;;;;;0.70;0.70;;;;;;;12.97;51.05;98643.16;4863273;29;20127;-82
2021/01/05 10:17:39;;;;;;;0.90;0.77;;;;;;;12.95;51.68;98642.66;4863630;29;20502;-81
2021/01/05 10:20:07;;;;;;;1.30;1.00;;;;;;;12.95;52.25;98645.34;4863340;29;20053;-81
2021/01/05 10:22:32;;;;;;;0.93;0.50;;;;;;;12.92;52.19;98643.25;4880141;29;20069;-81
2021/01/05 10:24:58;;;;;;;1.52;1.13;;;;;;;12.90;51.68;98637.41;4863007;29;20049;-81
2021/01/05 10:27:23;;;;;;;1.88;0.95;;;;;;;12.90;52.24;98642.78;4863465;29;20493;-81
2021/01/05 10:29:50;;;;;;;4.57;1.33;;;;;;;12.89;51.68;98643.88;4863398;29;20037;-81
2021/01/05 10:32:15;;;;;;;6.68;3.45;;;;;;;12.89;52.10;98646.53;4863082;29;20056;-81
2021/01/05 10:34:41;;;;;;;4.13;2.22;;;;;;;12.89;52.71;98635.81;4863232;29;20179;-81
2021/01/05 10:37:06;;;;;;;1.75;1.23;;;;;;;12.92;51.81;98640.56;4863027;29;20509;-81
2021/01/05 10:39:32;;;;;;;1.42;1.05;;;;;;;12.94;52.09;98638.38;4863166;29;20044;-81
2021/01/05 10:41:58;;;;;;;0.77;0.77;;;;;;;12.98;51.02;98642.03;4862897;29;20029;-81
2021/01/05 10:44:25;;;;;;;0.80;0.80;;;;;;;13.02;50.80;98633.41;4863082;29;20041;-81
2021/01/05 10:46:56;;;;;;;1.17;0.93;;;;;;;13.06;50.71;98637.06;4862926;29;20033;-81
2021/01/05 10:49:21;;;;;;;1.42;1.23;;;;;;;13.10;50.18;98633.47;4879594;29;20033;-81
2021/01/05 10:51:52;;;;;;;6.55;1.75;;;;;;;13.11;49.70;98627.00;4862843;29;20029;-81
2021/01/05 10:54:18;;;;;;;2.13;1.75;;;;;;;13.17;49.32;98641.13;4861976;29;20400;-81
2021/01/05 10:56:45;;;;;;;1.92;1.08;;;;;;;13.20;48.97;98639.72;4862886;29;20029;-81
2021/01/05 10:59:12;;;;;;;2.63;1.70;;;;;;;13.25;49.66;98639.59;4862601;29;20388;-81
2021/01/05 11:01:38;;;;;;;3.50;1.50;;;;;;;13.27;49.35;98635.50;4879308;29;20032;-80
2021/01/05 11:04:04;;;;;;;1.70;1.50;;;;;;;13.33;49.29;98640.75;4879125;29;20037;-80
2021/01/05 11:06:30;;;;;;;1.30;1.15;;;;;;;13.38;48.91;98641.47;4862657;29;20699;-80
2021/01/05 11:08:55;;;;;;;1.77;1.67;;;;;;;13.41;48.22;98634.69;4879739;29;20067;-80
2021/01/05 11:11:21;;;;;;;1.73;1.10;;;;;;;13.40;48.00;98631.22;4878995;29;20447;-80
2021/01/05 11:13:46;;;;;;;3.70;2.45;;;;;;;13.44;48.53;98632.19;4862507;29;20032;-80
2021/01/05 11:16:12;;;;;;;1.63;1.52;;;;;;;13.45;49.09;98638.34;4879022;29;20032;-80
2021/01/05 11:18:43;;;;;;;2.85;1.80;;;;;;;13.49;49.76;98644.72;4862515;29;20097;-79
2021/01/05 11:21:10;;;;;;;1.52;1.23;;;;;;;13.51;49.12;98644.41;4878918;29;20487;-82
2021/01/05 11:23:36;;;;;;;3.22;1.38;;;;;;;13.51;49.75;98645.22;4862380;29;20032;-81
2021/01/05 11:26:01;;;;;;;2.15;1.35;;;;;;;13.52;49.48;98643.31;4861932;29;20189;-81
2021/01/05 11:28:26;;;;;;;4.00;2.65;;;;;;;13.53;49.46;98642.22;4862312;29;20037;-81
2021/01/05 11:30:52;;;;;;;2.42;1.92;;;;;;;13.55;49.74;98637.31;4862259;29;20036;-80
2021/01/05 11:33:17;;;;;;;3.25;1.80;;;;;;;13.56;49.53;98628.97;4862043;29;20025;-81
2021/01/05 11:35:43;;;;;;;5.38;2.15;;;;;;;13.59;49.95;98630.25;4862253;29;20093;-81
2021/01/05 11:38:10;;;;;;;19.77;10.02;;;;;;;13.61;48.99;98628.84;4861900;29;20136;-80
2021/01/05 11:40:35;;;;;;;3.08;2.33;;;;;;;13.60;50.10;98624.56;4862154;29;20120;-81
2021/01/05 11:43:01;;;;;;;4.55;2.25;;;;;;;13.64;49.81;98623.97;4861854;29;20037;-81
2021/01/05 11:45:26;;;;;;;2.25;1.77;;;;;;;13.66;49.58;98633.28;4862064;29;20033;-81
2021/01/05 11:47:51;;;;;;;2.70;1.80;;;;;;;13.66;49.34;98633.28;4861965;29;20036;-81
2021/01/05 11:50:17;;;;;;;1.95;1.75;;;;;;;13.68;49.68;98630.28;4861664;29;20076;-81
2021/01/05 11:52:42;;;;;;;2.05;1.90;;;;;;;13.69;50.11;98627.28;4861873;29;20082;-81
2021/01/05 11:55:09;;;;;;;7.00;3.22;;;;;;;13.68;49.35;98622.22;4861624;29;20035;-81
2021/01/05 11:57:34;;;;;;;4.00;2.72;;;;;;;13.70;48.68;98634.25;4861672;29;20029;-81
2021/01/05 12:00:00;;;;;;;2.15;1.88;;;;;;;13.72;48.91;98629.38;4861736;29;20585;-81
2021/01/05 12:02:25;;;;;;;2.75;2.05;;;;;;;13.67;48.00;98626.00;4878248;29;20474;-81
2021/01/05 12:04:51;;;;;;;3.08;1.88;;;;;;;13.73;49.16;98635.53;4878324;29;20136;-81
2021/01/05 12:07:16;;;;;;;3.95;2.47;;;;;;;13.75;50.34;98630.66;4877976;29;20029;-81
2021/01/05 12:09:43;;;;;;;2.88;2.40;;;;;;;13.79;49.56;98645.06;4861310;29;20033;-81
2021/01/05 12:12:08;;;;;;;2.40;2.20;;;;;;;13.78;49.61;98638.13;4878314;29;20112;-81
2021/01/05 12:14:34;;;;;;;2.67;2.28;;;;;;;13.75;49.56;98639.50;4861417;29;20108;-81
2021/01/05 12:17:01;;;;;;;4.15;2.80;;;;;;;13.79;49.89;98638.91;4861472;29;20042;-81
2021/01/05 12:19:32;;;;;;;2.97;2.20;;;;;;;13.82;49.93;98649.03;4861211;29;20482;-81
2021/01/05 12:22:03;;;;;;;3.00;2.13;;;;;;;13.83;49.56;98650.63;4861368;29;20558;-81
2021/01/05 12:24:30;;;;;;;2.28;1.73;;;;;;;13.79;48.30;98639.69;4861260;29;20032;-81
2021/01/05 12:27:00;;;;;;;4.68;2.38;;;;;;;13.77;50.04;98648.06;4861176;29;20053;-81
2021/01/05 12:29:28;;;;;;;2.97;1.90;;;;;;;13.80;49.51;98649.34;4861168;29;20045;-81
2021/01/05 12:31:54;;;;;;;;;;;;;;;13.77;47.45;98653.44;4878354;29;20037;-81
2021/01/05 12:34:22;;;;;;;2.88;1.92;;;;;;;13.75;49.30;98654.84;4860902;29;20345;-81
2021/01/05 12:36:48;;;;;;;2.13;1.77;;;;;;;13.70;49.06;98654.97;4877614;29;20089;-81
2021/01/05 12:39:17;;;;;;;2.22;1.73;;;;;;;13.68;48.31;98659.84;4860899;29;20040;-81
2021/01/05 12:41:43;;;;;;;2.25;1.50;;;;;;;13.66;48.81;98662.84;4861030;29;20132;-81
2021/01/05 12:44:13;;;;;;;2.03;1.63;;;;;;;13.61;47.82;98665.66;4860825;29;20554;-81
2021/01/05 12:46:38;;;;;;;2.70;1.50;;;;;;;13.61;48.89;98671.03;4860970;29;20508;-81
2021/01/05 12:49:06;;;;;;;1.92;1.67;;;;;;;13.61;49.06;98668.34;4860973;29;20125;-81
2021/01/05 12:51:35;;;;;;;4.00;1.67;;;;;;;13.61;49.05;98674.50;4860853;29;20054;-81
2021/01/05 12:54:01;;;;;;;3.58;1.40;;;;;;;13.64;48.89;98675.78;4860918;29;20119;-81
2021/01/05 12:56:28;;;;;;;2.60;1.90;;;;;;;13.66;49.24;98678.16;4860712;29;20476;-81
2021/01/05 12:58:53;;;;;;;2.83;2.13;;;;;;;13.68;48.90;98684.03;4860802;29;20073;-81
2021/01/05 13:01:22;;;;;;;2.05;1.83;;;;;;;13.68;49.29;98690.19;4860620;29;20067;-81
2021/01/05 13:03:49;;;;;;;3.33;1.75;;;;;;;13.69;49.51;98686.41;4860738;29;20036;-81
2021/01/05 13:06:15;;;;;;;2.10;1.75;;;;;;;13.69;48.21;98686.41;4860527;29;20029;-81
2021/01/05 13:08:43;;;;;;;2.72;1.60;;;;;;;13.64;48.51;98689.22;4860479;29;20115;-81
2021/01/05 13:11:10;;;;;;;1.80;1.70;;;;;;;13.61;49.58;98689.84;4876982;29;20033;-81
2021/01/05 13:13:36;;;;;;;2.33;1.85;;;;;;;13.62;48.22;98691.41;4860647;29;20085;-81
2021/01/05 13:16:01;;;;;;;2.17;1.90;;;;;;;13.58;49.04;98693.91;4860555;29;20029;-81
2021/01/05 13:18:26;;;;;;;2.95;2.00;;;;;;;13.62;49.63;98702.16;4859946;29;20025;-82
2021/01/05 13:20:52;;;;;;;3.03;1.67;;;;;;;13.59;49.30;98695.50;4860598;29;20072;-81
2021/01/05 13:23:17;;;;;;;2.50;1.77;;;;;;;13.58;48.62;98704.66;4860368;29;20479;-81
2021/01/05 13:25:43;;;;;;;2.50;2.08;;;;;;;13.58;49.34;98703.88;4860359;29;20563;-81
2021/01/05 13:28:08;;;;;;;2.15;1.80;;;;;;;13.58;48.66;98710.03;4860309;29;20077;-81
2021/01/05 13:30:34;;;;;;;2.05;1.60;;;;;;;13.62;48.51;98712.91;4860424;29;20033;-81
2021/01/05 13:32:59;;;;;;;1.95;1.60;;;;;;;13.62;48.41;98715.59;4860101;29;20546;-81
2021/01/05 13:35:25;;;;;;;4.65;1.80;;;;;;;13.59;48.69;98717.00;4860219;29;20026;-81
2021/01/05 13:37:50;;;;;;;1.52;1.42;;;;;;;13.60;49.29;98721.28;4860154;29;20025;-81
2021/01/05 13:40:15;;;;;;;2.08;1.45;;;;;;;13.59;49.67;98730.44;4860216;29;20028;-81
2021/01/05 13:42:41;;;;;;;2.38;1.90;;;;;;;13.59;49.97;98717.00;4860363;29;20021;-81
2021/01/05 13:45:07;;;;;;;3.10;1.60;;;;;;;13.61;50.32;98732.84;4877039;29;20471;-81
2021/01/05 13:47:33;;;;;;;2.90;1.30;;;;;;;13.61;49.25;98730.94;4860221;29;20033;-81
2021/01/05 13:49:58;;;;;;;2.58;2.10;;;;;;;13.58;49.91;98736.91;4860291;29;20044;-81
2021/01/05 13:52:28;;;;;;;2.10;1.67;;;;;;;13.60;49.93;98737.41;4876399;29;20026;-81
2021/01/05 13:54:54;;;;;;;4.72;3.00;;;;;;;13.57;49.17;98739.91;4876934;29;20056;-82